SBPA

Porto Alegre/Salgado Filho International Airport

Airport
ICAO code
SBPA
IATA Code
PAO
Summary
ICAO Region
CARSAM
ICAO Territory
Location

Porto Alegre, Rio Grande do Sul

Serving
Porto Alegre
Elevation
11 ft
Coordinates
29° 59' 38" S , 51° 10' 16" W
KCC
Airport WX
Cumulonimbus
Metar
SBPA 280500Z 17003KT 150V210 9999 FEW020 24/23 Q1010

Salgado Filho International Airport is the airport in the capital of the Rio Grande do Sul state, Porto Alegre city, Brazil.

Climatology

Humid “subtropical” climate (Köppen climate classification Cfa) - characterized by hot, humid summers and cool winters. Significant amounts of precipitation occur in all seasons in most areas.

Runways

Designator Length Width Surface Rops
11/29 2280 42 ASP Yes/Yes

Airport map

Aerial View

SKYbrary Partners:

Safety knowledge contributed by: